sensor_id;sensor_type;location;lat;lon;timestamp;P1;durP1;ratioP1;P2;durP2;ratioP2
65328;SDS011;51941;52.210;5.158;2023-03-23T00:02:19;5.53;;;2.95;;
65328;SDS011;51941;52.210;5.158;2023-03-23T00:04:45;5.18;;;2.80;;
65328;SDS011;51941;52.210;5.158;2023-03-23T00:07:14;5.95;;;2.80;;
65328;SDS011;51941;52.210;5.158;2023-03-23T00:09:46;5.20;;;2.72;;
65328;SDS011;51941;52.210;5.158;2023-03-23T00:12:19;5.40;;;3.20;;
65328;SDS011;51941;52.210;5.158;2023-03-23T00:14:58;7.53;;;2.63;;
65328;SDS011;51941;52.210;5.158;2023-03-23T00:17:25;5.55;;;3.00;;
65328;SDS011;51941;52.210;5.158;2023-03-23T00:19:52;7.15;;;2.83;;
65328;SDS011;51941;52.210;5.158;2023-03-23T00:22:19;3.63;;;2.10;;
65328;SDS011;51941;52.210;5.158;2023-03-23T00:24:46;4.82;;;2.50;;
65328;SDS011;51941;52.210;5.158;2023-03-23T00:27:15;4.28;;;2.67;;
65328;SDS011;51941;52.210;5.158;2023-03-23T00:29:43;5.45;;;2.30;;
65328;SDS011;51941;52.210;5.158;2023-03-23T00:32:12;3.53;;;2.17;;
65328;SDS011;51941;52.210;5.158;2023-03-23T00:34:41;5.18;;;2.30;;
65328;SDS011;51941;52.210;5.158;2023-03-23T00:37:11;3.55;;;2.20;;
65328;SDS011;51941;52.210;5.158;2023-03-23T00:39:38;3.35;;;2.10;;
65328;SDS011;51941;52.210;5.158;2023-03-23T00:42:11;4.03;;;2.10;;
65328;SDS011;51941;52.210;5.158;2023-03-23T00:44:38;3.10;;;2.30;;
65328;SDS011;51941;52.210;5.158;2023-03-23T00:47:07;2.35;;;1.90;;
65328;SDS011;51941;52.210;5.158;2023-03-23T00:49:37;6.07;;;2.28;;
65328;SDS011;51941;52.210;5.158;2023-03-23T00:52:04;2.90;;;1.95;;
65328;SDS011;51941;52.210;5.158;2023-03-23T00:54:32;4.38;;;2.10;;
65328;SDS011;51941;52.210;5.158;2023-03-23T00:56:59;4.30;;;2.03;;
65328;SDS011;51941;52.210;5.158;2023-03-23T00:59:26;6.28;;;2.30;;
65328;SDS011;51941;52.210;5.158;2023-03-23T01:01:53;5.20;;;2.33;;
65328;SDS011;51941;52.210;5.158;2023-03-23T01:04:22;4.45;;;2.00;;
65328;SDS011;51941;52.210;5.158;2023-03-23T01:06:50;4.40;;;2.55;;
65328;SDS011;51941;52.210;5.158;2023-03-23T01:09:17;7.75;;;2.20;;
65328;SDS011;51941;52.210;5.158;2023-03-23T01:11:47;4.47;;;2.20;;
65328;SDS011;51941;52.210;5.158;2023-03-23T01:14:16;2.30;;;1.50;;
65328;SDS011;51941;52.210;5.158;2023-03-23T01:16:44;1.87;;;1.43;;
65328;SDS011;51941;52.210;5.158;2023-03-23T01:19:11;3.15;;;1.70;;
65328;SDS011;51941;52.210;5.158;2023-03-23T01:21:40;3.00;;;1.65;;
65328;SDS011;51941;52.210;5.158;2023-03-23T01:24:07;2.88;;;1.67;;
65328;SDS011;51941;52.210;5.158;2023-03-23T01:26:34;3.60;;;1.85;;
65328;SDS011;51941;52.210;5.158;2023-03-23T01:29:00;2.63;;;1.50;;
65328;SDS011;51941;52.210;5.158;2023-03-23T01:31:27;4.00;;;1.70;;
65328;SDS011;51941;52.210;5.158;2023-03-23T01:33:54;2.47;;;1.10;;
65328;SDS011;51941;52.210;5.158;2023-03-23T01:36:23;2.55;;;1.60;;
65328;SDS011;51941;52.210;5.158;2023-03-23T01:38:53;2.67;;;1.65;;
65328;SDS011;51941;52.210;5.158;2023-03-23T01:41:21;3.70;;;1.30;;
65328;SDS011;51941;52.210;5.158;2023-03-23T01:43:55;3.17;;;1.50;;
65328;SDS011;51941;52.210;5.158;2023-03-23T01:46:25;3.17;;;1.50;;
65328;SDS011;51941;52.210;5.158;2023-03-23T01:48:52;2.25;;;1.65;;
65328;SDS011;51941;52.210;5.158;2023-03-23T01:51:23;3.17;;;1.63;;
65328;SDS011;51941;52.210;5.158;2023-03-23T01:53:56;3.78;;;1.50;;
65328;SDS011;51941;52.210;5.158;2023-03-23T01:56:27;2.63;;;1.77;;
65328;SDS011;51941;52.210;5.158;2023-03-23T01:58:59;1.60;;;1.20;;
65328;SDS011;51941;52.210;5.158;2023-03-23T02:01:26;4.32;;;1.90;;
65328;SDS011;51941;52.210;5.158;2023-03-23T02:03:54;2.28;;;1.30;;
65328;SDS011;51941;52.210;5.158;2023-03-23T02:06:23;4.43;;;1.70;;
65328;SDS011;51941;52.210;5.158;2023-03-23T02:11:32;2.78;;;1.55;;
65328;SDS011;51941;52.210;5.158;2023-03-23T02:14:00;2.90;;;1.38;;
65328;SDS011;51941;52.210;5.158;2023-03-23T02:16:30;3.47;;;1.60;;
65328;SDS011;51941;52.210;5.158;2023-03-23T02:19:05;6.90;;;2.00;;
65328;SDS011;51941;52.210;5.158;2023-03-23T02:21:53;4.25;;;1.55;;
65328;SDS011;51941;52.210;5.158;2023-03-23T02:24:40;4.53;;;2.15;;
65328;SDS011;51941;52.210;5.158;2023-03-23T02:27:20;3.40;;;1.50;;
65328;SDS011;51941;52.210;5.158;2023-03-23T02:30:11;2.85;;;1.33;;
65328;SDS011;51941;52.210;5.158;2023-03-23T02:33:08;2.67;;;1.50;;
65328;SDS011;51941;52.210;5.158;2023-03-23T02:35:56;2.95;;;1.67;;
65328;SDS011;51941;52.210;5.158;2023-03-23T02:38:28;3.65;;;1.60;;
65328;SDS011;51941;52.210;5.158;2023-03-23T02:41:00;2.03;;;1.25;;
65328;SDS011;51941;52.210;5.158;2023-03-23T02:43:30;4.80;;;1.80;;
65328;SDS011;51941;52.210;5.158;2023-03-23T02:46:01;3.63;;;1.60;;
65328;SDS011;51941;52.210;5.158;2023-03-23T02:48:33;2.72;;;1.55;;
65328;SDS011;51941;52.210;5.158;2023-03-23T02:51:02;1.90;;;1.60;;
65328;SDS011;51941;52.210;5.158;2023-03-23T02:53:30;3.58;;;1.60;;
65328;SDS011;51941;52.210;5.158;2023-03-23T02:56:02;1.85;;;1.20;;
65328;SDS011;51941;52.210;5.158;2023-03-23T02:58:33;4.22;;;1.75;;
65328;SDS011;51941;52.210;5.158;2023-03-23T03:01:11;3.53;;;1.80;;
65328;SDS011;51941;52.210;5.158;2023-03-23T03:03:44;3.83;;;1.60;;
65328;SDS011;51941;52.210;5.158;2023-03-23T03:06:13;2.55;;;1.50;;
65328;SDS011;51941;52.210;5.158;2023-03-23T03:08:52;3.15;;;1.50;;
65328;SDS011;51941;52.210;5.158;2023-03-23T03:11:23;2.53;;;1.33;;
65328;SDS011;51941;52.210;5.158;2023-03-23T03:13:52;5.13;;;1.63;;
65328;SDS011;51941;52.210;5.158;2023-03-23T03:16:26;5.38;;;1.45;;
65328;SDS011;51941;52.210;5.158;2023-03-23T03:19:00;2.22;;;1.23;;
65328;SDS011;51941;52.210;5.158;2023-03-23T03:21:30;2.92;;;1.20;;
65328;SDS011;51941;52.210;5.158;2023-03-23T03:24:00;3.90;;;1.30;;
65328;SDS011;51941;52.210;5.158;2023-03-23T03:26:30;6.20;;;1.27;;
65328;SDS011;51941;52.210;5.158;2023-03-23T03:29:17;4.68;;;1.20;;
65328;SDS011;51941;52.210;5.158;2023-03-23T03:31:48;3.30;;;1.20;;
65328;SDS011;51941;52.210;5.158;2023-03-23T03:34:21;6.93;;;1.50;;
65328;SDS011;51941;52.210;5.158;2023-03-23T03:36:51;4.82;;;1.50;;
65328;SDS011;51941;52.210;5.158;2023-03-23T03:39:21;3.50;;;1.20;;
65328;SDS011;51941;52.210;5.158;2023-03-23T03:41:48;3.72;;;1.05;;
65328;SDS011;51941;52.210;5.158;2023-03-23T03:44:15;1.95;;;1.05;;
65328;SDS011;51941;52.210;5.158;2023-03-23T03:46:42;3.83;;;1.27;;
65328;SDS011;51941;52.210;5.158;2023-03-23T03:49:10;3.55;;;1.10;;
65328;SDS011;51941;52.210;5.158;2023-03-23T03:51:41;3.83;;;1.27;;
65328;SDS011;51941;52.210;5.158;2023-03-23T03:54:16;3.10;;;1.33;;
65328;SDS011;51941;52.210;5.158;2023-03-23T03:56:42;4.47;;;1.30;;
65328;SDS011;51941;52.210;5.158;2023-03-23T03:59:36;3.92;;;1.30;;
65328;SDS011;51941;52.210;5.158;2023-03-23T04:02:09;4.00;;;1.52;;
65328;SDS011;51941;52.210;5.158;2023-03-23T04:04:39;4.82;;;1.40;;
65328;SDS011;51941;52.210;5.158;2023-03-23T04:07:08;4.82;;;1.48;;
65328;SDS011;51941;52.210;5.158;2023-03-23T04:09:37;3.72;;;1.30;;
65328;SDS011;51941;52.210;5.158;2023-03-23T04:12:05;3.40;;;1.50;;
65328;SDS011;51941;52.210;5.158;2023-03-23T04:14:51;4.45;;;2.00;;
65328;SDS011;51941;52.210;5.158;2023-03-23T04:17:18;9.30;;;2.25;;
65328;SDS011;51941;52.210;5.158;2023-03-23T04:19:45;8.55;;;2.33;;
65328;SDS011;51941;52.210;5.158;2023-03-23T04:22:14;7.15;;;2.00;;
65328;SDS011;51941;52.210;5.158;2023-03-23T04:24:42;6.03;;;1.93;;
65328;SDS011;51941;52.210;5.158;2023-03-23T04:27:14;7.43;;;1.80;;
65328;SDS011;51941;52.210;5.158;2023-03-23T04:29:42;4.47;;;1.30;;
65328;SDS011;51941;52.210;5.158;2023-03-23T04:32:35;2.97;;;1.10;;
65328;SDS011;51941;52.210;5.158;2023-03-23T04:35:06;2.05;;;1.05;;
65328;SDS011;51941;52.210;5.158;2023-03-23T04:37:40;2.38;;;1.55;;
65328;SDS011;51941;52.210;5.158;2023-03-23T04:40:09;7.90;;;1.48;;
65328;SDS011;51941;52.210;5.158;2023-03-23T04:42:42;3.50;;;1.00;;
65328;SDS011;51941;52.210;5.158;2023-03-23T04:45:29;6.30;;;1.60;;
65328;SDS011;51941;52.210;5.158;2023-03-23T04:47:59;2.55;;;1.10;;
65328;SDS011;51941;52.210;5.158;2023-03-23T04:50:37;4.03;;;1.10;;
65328;SDS011;51941;52.210;5.158;2023-03-23T04:53:15;7.60;;;1.50;;
65328;SDS011;51941;52.210;5.158;2023-03-23T04:55:44;9.27;;;1.60;;
65328;SDS011;51941;52.210;5.158;2023-03-23T04:58:13;4.50;;;1.38;;
65328;SDS011;51941;52.210;5.158;2023-03-23T05:00:55;6.05;;;1.40;;
65328;SDS011;51941;52.210;5.158;2023-03-23T05:03:23;5.20;;;1.40;;
65328;SDS011;51941;52.210;5.158;2023-03-23T05:05:53;10.25;;;1.70;;
65328;SDS011;51941;52.210;5.158;2023-03-23T05:08:22;6.70;;;1.48;;
65328;SDS011;51941;52.210;5.158;2023-03-23T05:10:51;6.93;;;1.58;;
65328;SDS011;51941;52.210;5.158;2023-03-23T05:13:19;7.43;;;1.42;;
65328;SDS011;51941;52.210;5.158;2023-03-23T05:15:50;5.90;;;1.35;;
65328;SDS011;51941;52.210;5.158;2023-03-23T05:18:16;4.25;;;0.98;;
65328;SDS011;51941;52.210;5.158;2023-03-23T05:20:45;6.18;;;1.35;;
65328;SDS011;51941;52.210;5.158;2023-03-23T05:23:16;3.97;;;1.17;;
65328;SDS011;51941;52.210;5.158;2023-03-23T05:25:53;7.95;;;1.70;;
65328;SDS011;51941;52.210;5.158;2023-03-23T05:28:20;9.73;;;1.40;;
65328;SDS011;51941;52.210;5.158;2023-03-23T05:30:52;6.55;;;1.30;;
65328;SDS011;51941;52.210;5.158;2023-03-23T05:33:20;6.13;;;1.30;;
65328;SDS011;51941;52.210;5.158;2023-03-23T05:36:06;7.57;;;1.63;;
65328;SDS011;51941;52.210;5.158;2023-03-23T05:38:55;8.27;;;1.65;;
65328;SDS011;51941;52.210;5.158;2023-03-23T05:41:28;8.27;;;2.03;;
65328;SDS011;51941;52.210;5.158;2023-03-23T05:43:55;8.98;;;2.03;;
65328;SDS011;51941;52.210;5.158;2023-03-23T05:46:28;10.05;;;2.33;;
65328;SDS011;51941;52.210;5.158;2023-03-23T05:48:58;8.48;;;2.00;;
65328;SDS011;51941;52.210;5.158;2023-03-23T05:51:32;14.18;;;2.42;;
65328;SDS011;51941;52.210;5.158;2023-03-23T05:53:59;10.75;;;2.42;;
65328;SDS011;51941;52.210;5.158;2023-03-23T05:56:25;9.77;;;2.17;;
65328;SDS011;51941;52.210;5.158;2023-03-23T05:59:10;6.68;;;2.20;;
65328;SDS011;51941;52.210;5.158;2023-03-23T06:01:39;4.47;;;1.55;;
65328;SDS011;51941;52.210;5.158;2023-03-23T06:04:05;6.68;;;1.73;;
65328;SDS011;51941;52.210;5.158;2023-03-23T06:06:42;5.18;;;2.03;;
65328;SDS011;51941;52.210;5.158;2023-03-23T06:09:10;4.75;;;1.55;;
65328;SDS011;51941;52.210;5.158;2023-03-23T06:12:15;6.82;;;1.67;;
65328;SDS011;51941;52.210;5.158;2023-03-23T06:15:09;8.35;;;1.52;;
65328;SDS011;51941;52.210;5.158;2023-03-23T06:17:55;5.78;;;1.65;;
65328;SDS011;51941;52.210;5.158;2023-03-23T06:20:28;5.93;;;1.38;;
65328;SDS011;51941;52.210;5.158;2023-03-23T06:22:57;6.68;;;1.75;;
65328;SDS011;51941;52.210;5.158;2023-03-23T06:25:29;9.57;;;2.05;;
65328;SDS011;51941;52.210;5.158;2023-03-23T06:27:57;4.95;;;1.70;;
65328;SDS011;51941;52.210;5.158;2023-03-23T06:30:26;8.55;;;1.60;;
65328;SDS011;51941;52.210;5.158;2023-03-23T06:32:55;4.50;;;1.50;;
65328;SDS011;51941;52.210;5.158;2023-03-23T06:35:42;7.68;;;2.03;;
65328;SDS011;51941;52.210;5.158;2023-03-23T06:38:18;8.27;;;2.00;;
65328;SDS011;51941;52.210;5.158;2023-03-23T06:40:51;4.45;;;1.42;;
65328;SDS011;51941;52.210;5.158;2023-03-23T06:43:18;10.03;;;1.93;;
65328;SDS011;51941;52.210;5.158;2023-03-23T06:45:59;7.10;;;1.77;;
65328;SDS011;51941;52.210;5.158;2023-03-23T06:48:53;6.20;;;1.40;;
65328;SDS011;51941;52.210;5.158;2023-03-23T06:51:28;9.07;;;2.05;;
65328;SDS011;51941;52.210;5.158;2023-03-23T06:53:55;5.45;;;1.58;;
65328;SDS011;51941;52.210;5.158;2023-03-23T06:56:24;3.67;;;1.30;;
65328;SDS011;51941;52.210;5.158;2023-03-23T06:58:52;5.07;;;1.75;;
65328;SDS011;51941;52.210;5.158;2023-03-23T07:01:21;5.90;;;2.05;;
65328;SDS011;51941;52.210;5.158;2023-03-23T07:03:55;10.82;;;2.60;;
65328;SDS011;51941;52.210;5.158;2023-03-23T07:06:33;8.52;;;2.70;;
65328;SDS011;51941;52.210;5.158;2023-03-23T07:09:00;12.38;;;2.97;;
65328;SDS011;51941;52.210;5.158;2023-03-23T07:11:28;8.52;;;2.22;;
65328;SDS011;51941;52.210;5.158;2023-03-23T07:14:00;7.05;;;1.85;;
65328;SDS011;51941;52.210;5.158;2023-03-23T07:16:29;7.82;;;2.25;;
65328;SDS011;51941;52.210;5.158;2023-03-23T07:18:56;7.22;;;2.05;;
65328;SDS011;51941;52.210;5.158;2023-03-23T07:21:23;4.03;;;1.67;;
65328;SDS011;51941;52.210;5.158;2023-03-23T07:23:50;7.80;;;2.15;;
65328;SDS011;51941;52.210;5.158;2023-03-23T07:26:28;6.82;;;2.05;;
65328;SDS011;51941;52.210;5.158;2023-03-23T07:28:55;8.60;;;2.45;;
65328;SDS011;51941;52.210;5.158;2023-03-23T07:31:29;9.90;;;2.17;;
65328;SDS011;51941;52.210;5.158;2023-03-23T07:33:57;9.52;;;2.38;;
65328;SDS011;51941;52.210;5.158;2023-03-23T07:36:33;10.63;;;1.88;;
65328;SDS011;51941;52.210;5.158;2023-03-23T07:39:03;7.75;;;1.92;;
65328;SDS011;51941;52.210;5.158;2023-03-23T07:41:32;3.37;;;1.17;;
65328;SDS011;51941;52.210;5.158;2023-03-23T07:44:05;4.53;;;1.60;;
65328;SDS011;51941;52.210;5.158;2023-03-23T07:46:37;4.53;;;1.70;;
65328;SDS011;51941;52.210;5.158;2023-03-23T07:49:11;5.00;;;1.60;;
65328;SDS011;51941;52.210;5.158;2023-03-23T07:51:46;7.07;;;1.33;;
65328;SDS011;51941;52.210;5.158;2023-03-23T07:54:14;5.40;;;1.50;;
65328;SDS011;51941;52.210;5.158;2023-03-23T07:57:04;8.27;;;2.00;;
65328;SDS011;51941;52.210;5.158;2023-03-23T07:59:36;7.40;;;1.63;;
65328;SDS011;51941;52.210;5.158;2023-03-23T08:02:04;8.10;;;1.67;;
65328;SDS011;51941;52.210;5.158;2023-03-23T08:04:39;11.43;;;2.13;;
65328;SDS011;51941;52.210;5.158;2023-03-23T08:07:28;8.27;;;1.85;;
65328;SDS011;51941;52.210;5.158;2023-03-23T08:10:21;8.07;;;1.65;;
65328;SDS011;51941;52.210;5.158;2023-03-23T08:12:56;8.32;;;1.70;;
65328;SDS011;51941;52.210;5.158;2023-03-23T08:15:48;9.40;;;1.80;;
65328;SDS011;51941;52.210;5.158;2023-03-23T08:18:28;8.95;;;1.85;;
65328;SDS011;51941;52.210;5.158;2023-03-23T08:21:12;9.15;;;1.48;;
65328;SDS011;51941;52.210;5.158;2023-03-23T08:24:08;8.77;;;1.83;;
65328;SDS011;51941;52.210;5.158;2023-03-23T08:26:52;5.78;;;1.42;;
65328;SDS011;51941;52.210;5.158;2023-03-23T08:29:22;6.20;;;1.13;;
65328;SDS011;51941;52.210;5.158;2023-03-23T08:31:49;9.32;;;1.90;;
65328;SDS011;51941;52.210;5.158;2023-03-23T08:34:38;7.70;;;1.65;;
65328;SDS011;51941;52.210;5.158;2023-03-23T08:37:10;7.07;;;1.73;;
65328;SDS011;51941;52.210;5.158;2023-03-23T08:39:51;9.07;;;1.58;;
65328;SDS011;51941;52.210;5.158;2023-03-23T08:42:24;6.68;;;1.30;;
65328;SDS011;51941;52.210;5.158;2023-03-23T08:45:05;7.30;;;1.50;;
65328;SDS011;51941;52.210;5.158;2023-03-23T08:47:45;6.07;;;1.83;;
65328;SDS011;51941;52.210;5.158;2023-03-23T08:53:21;9.32;;;1.90;;
65328;SDS011;51941;52.210;5.158;2023-03-23T08:56:17;10.98;;;2.63;;
65328;SDS011;51941;52.210;5.158;2023-03-23T08:59:03;7.03;;;1.85;;
65328;SDS011;51941;52.210;5.158;2023-03-23T09:01:50;5.20;;;1.63;;
65328;SDS011;51941;52.210;5.158;2023-03-23T09:04:40;6.70;;;1.67;;
65328;SDS011;51941;52.210;5.158;2023-03-23T09:07:27;6.53;;;1.75;;
65328;SDS011;51941;52.210;5.158;2023-03-23T09:09:54;8.10;;;1.60;;
65328;SDS011;51941;52.210;5.158;2023-03-23T09:12:20;8.13;;;2.05;;
65328;SDS011;51941;52.210;5.158;2023-03-23T09:14:48;7.53;;;1.90;;
65328;SDS011;51941;52.210;5.158;2023-03-23T09:17:15;7.90;;;2.30;;
65328;SDS011;51941;52.210;5.158;2023-03-23T09:19:41;7.68;;;2.00;;
65328;SDS011;51941;52.210;5.158;2023-03-23T09:22:08;12.60;;;1.95;;
65328;SDS011;51941;52.210;5.158;2023-03-23T09:24:36;5.63;;;1.63;;
65328;SDS011;51941;52.210;5.158;2023-03-23T09:27:03;6.88;;;1.45;;
65328;SDS011;51941;52.210;5.158;2023-03-23T09:29:30;5.15;;;1.40;;
65328;SDS011;51941;52.210;5.158;2023-03-23T09:31:56;6.55;;;2.08;;
65328;SDS011;51941;52.210;5.158;2023-03-23T09:34:23;6.40;;;1.67;;
65328;SDS011;51941;52.210;5.158;2023-03-23T09:36:50;16.50;;;3.25;;
65328;SDS011;51941;52.210;5.158;2023-03-23T09:39:17;7.20;;;2.00;;
65328;SDS011;51941;52.210;5.158;2023-03-23T09:41:58;10.88;;;2.42;;
65328;SDS011;51941;52.210;5.158;2023-03-23T09:44:36;10.77;;;2.15;;
65328;SDS011;51941;52.210;5.158;2023-03-23T09:47:18;11.75;;;2.58;;
65328;SDS011;51941;52.210;5.158;2023-03-23T09:49:50;14.57;;;2.78;;
65328;SDS011;51941;52.210;5.158;2023-03-23T09:52:21;7.53;;;2.03;;
65328;SDS011;51941;52.210;5.158;2023-03-23T09:54:49;10.55;;;2.45;;
65328;SDS011;51941;52.210;5.158;2023-03-23T09:57:22;11.27;;;2.20;;
65328;SDS011;51941;52.210;5.158;2023-03-23T09:59:54;12.63;;;2.33;;
65328;SDS011;51941;52.210;5.158;2023-03-23T10:02:27;17.88;;;2.90;;
65328;SDS011;51941;52.210;5.158;2023-03-23T10:05:00;11.23;;;2.30;;
65328;SDS011;51941;52.210;5.158;2023-03-23T10:07:42;12.82;;;2.35;;
65328;SDS011;51941;52.210;5.158;2023-03-23T10:10:11;8.93;;;1.98;;
65328;SDS011;51941;52.210;5.158;2023-03-23T10:12:42;9.43;;;1.67;;
65328;SDS011;51941;52.210;5.158;2023-03-23T10:15:16;9.98;;;2.05;;
65328;SDS011;51941;52.210;5.158;2023-03-23T10:17:47;11.60;;;2.25;;
65328;SDS011;51941;52.210;5.158;2023-03-23T10:20:21;7.43;;;1.60;;
65328;SDS011;51941;52.210;5.158;2023-03-23T10:22:56;9.43;;;1.90;;
65328;SDS011;51941;52.210;5.158;2023-03-23T10:25:29;5.63;;;1.55;;
65328;SDS011;51941;52.210;5.158;2023-03-23T10:30:31;11.70;;;1.85;;
65328;SDS011;51941;52.210;5.158;2023-03-23T10:33:01;9.13;;;1.92;;
65328;SDS011;51941;52.210;5.158;2023-03-23T10:35:33;7.72;;;1.88;;
65328;SDS011;51941;52.210;5.158;2023-03-23T10:38:05;8.55;;;1.60;;
65328;SDS011;51941;52.210;5.158;2023-03-23T10:40:43;6.10;;;1.50;;
65328;SDS011;51941;52.210;5.158;2023-03-23T10:43:16;8.30;;;1.83;;
65328;SDS011;51941;52.210;5.158;2023-03-23T10:45:43;10.35;;;2.13;;
65328;SDS011;51941;52.210;5.158;2023-03-23T10:48:15;5.97;;;1.60;;
65328;SDS011;51941;52.210;5.158;2023-03-23T10:50:49;9.07;;;1.90;;
65328;SDS011;51941;52.210;5.158;2023-03-23T10:53:21;7.90;;;1.50;;
65328;SDS011;51941;52.210;5.158;2023-03-23T10:55:49;9.73;;;1.70;;
65328;SDS011;51941;52.210;5.158;2023-03-23T10:58:24;10.30;;;1.63;;
65328;SDS011;51941;52.210;5.158;2023-03-23T11:00:54;11.73;;;2.00;;
65328;SDS011;51941;52.210;5.158;2023-03-23T11:03:25;9.77;;;1.95;;
65328;SDS011;51941;52.210;5.158;2023-03-23T11:06:00;5.63;;;1.63;;
65328;SDS011;51941;52.210;5.158;2023-03-23T11:08:31;14.75;;;1.85;;
65328;SDS011;51941;52.210;5.158;2023-03-23T11:11:07;7.65;;;1.67;;
65328;SDS011;51941;52.210;5.158;2023-03-23T11:13:39;9.50;;;1.80;;
65328;SDS011;51941;52.210;5.158;2023-03-23T11:16:09;11.82;;;2.20;;
65328;SDS011;51941;52.210;5.158;2023-03-23T11:18:37;10.95;;;2.05;;
65328;SDS011;51941;52.210;5.158;2023-03-23T11:21:05;12.40;;;2.08;;
65328;SDS011;51941;52.210;5.158;2023-03-23T11:23:35;6.75;;;1.60;;
65328;SDS011;51941;52.210;5.158;2023-03-23T11:26:09;10.15;;;1.70;;
65328;SDS011;51941;52.210;5.158;2023-03-23T11:28:43;7.68;;;2.00;;
65328;SDS011;51941;52.210;5.158;2023-03-23T11:31:13;11.32;;;2.17;;
65328;SDS011;51941;52.210;5.158;2023-03-23T11:33:45;10.15;;;1.90;;
65328;SDS011;51941;52.210;5.158;2023-03-23T11:36:17;10.38;;;2.40;;
65328;SDS011;51941;52.210;5.158;2023-03-23T11:38:44;13.13;;;2.28;;
65328;SDS011;51941;52.210;5.158;2023-03-23T11:41:12;10.77;;;2.22;;
65328;SDS011;51941;52.210;5.158;2023-03-23T11:43:46;11.95;;;2.28;;
65328;SDS011;51941;52.210;5.158;2023-03-23T11:46:16;6.30;;;1.35;;
65328;SDS011;51941;52.210;5.158;2023-03-23T11:48:52;14.00;;;2.47;;
65328;SDS011;51941;52.210;5.158;2023-03-23T11:51:25;12.35;;;2.20;;
65328;SDS011;51941;52.210;5.158;2023-03-23T11:53:57;12.77;;;2.22;;
65328;SDS011;51941;52.210;5.158;2023-03-23T11:56:29;13.52;;;2.63;;
65328;SDS011;51941;52.210;5.158;2023-03-23T11:59:00;7.97;;;1.83;;
65328;SDS011;51941;52.210;5.158;2023-03-23T12:01:39;6.95;;;1.88;;
65328;SDS011;51941;52.210;5.158;2023-03-23T12:04:37;12.52;;;2.30;;
65328;SDS011;51941;52.210;5.158;2023-03-23T12:07:21;15.27;;;2.47;;
65328;SDS011;51941;52.210;5.158;2023-03-23T12:10:01;10.18;;;1.88;;
65328;SDS011;51941;52.210;5.158;2023-03-23T12:12:43;8.20;;;1.98;;
65328;SDS011;51941;52.210;5.158;2023-03-23T12:15:19;10.77;;;2.67;;
65328;SDS011;51941;52.210;5.158;2023-03-23T12:17:54;7.65;;;1.90;;
65328;SDS011;51941;52.210;5.158;2023-03-23T12:20:34;9.27;;;2.22;;
65328;SDS011;51941;52.210;5.158;2023-03-23T12:23:15;11.95;;;2.20;;
65328;SDS011;51941;52.210;5.158;2023-03-23T12:28:50;8.88;;;1.90;;
65328;SDS011;51941;52.210;5.158;2023-03-23T12:31:44;12.90;;;2.22;;
65328;SDS011;51941;52.210;5.158;2023-03-23T12:34:22;7.72;;;2.03;;
65328;SDS011;51941;52.210;5.158;2023-03-23T12:37:04;9.60;;;1.90;;
65328;SDS011;51941;52.210;5.158;2023-03-23T12:39:54;8.18;;;1.70;;
65328;SDS011;51941;52.210;5.158;2023-03-23T12:42:37;6.72;;;1.80;;
65328;SDS011;51941;52.210;5.158;2023-03-23T12:45:15;8.98;;;1.58;;
65328;SDS011;51941;52.210;5.158;2023-03-23T12:47:49;9.35;;;1.85;;
65328;SDS011;51941;52.210;5.158;2023-03-23T12:50:24;6.03;;;1.30;;
65328;SDS011;51941;52.210;5.158;2023-03-23T12:52:57;7.22;;;1.55;;
65328;SDS011;51941;52.210;5.158;2023-03-23T12:55:32;9.45;;;2.22;;
65328;SDS011;51941;52.210;5.158;2023-03-23T12:58:03;8.25;;;1.80;;
65328;SDS011;51941;52.210;5.158;2023-03-23T13:00:35;6.60;;;1.77;;
65328;SDS011;51941;52.210;5.158;2023-03-23T13:03:19;9.82;;;1.60;;
65328;SDS011;51941;52.210;5.158;2023-03-23T13:05:52;6.50;;;1.48;;
65328;SDS011;51941;52.210;5.158;2023-03-23T13:08:21;7.13;;;1.38;;
65328;SDS011;51941;52.210;5.158;2023-03-23T13:10:52;7.05;;;1.73;;
65328;SDS011;51941;52.210;5.158;2023-03-23T13:13:25;11.18;;;1.50;;
65328;SDS011;51941;52.210;5.158;2023-03-23T13:16:07;6.05;;;1.50;;
65328;SDS011;51941;52.210;5.158;2023-03-23T13:18:44;6.93;;;1.30;;
65328;SDS011;51941;52.210;5.158;2023-03-23T13:21:17;6.35;;;1.48;;
65328;SDS011;51941;52.210;5.158;2023-03-23T13:23:50;7.15;;;1.45;;
65328;SDS011;51941;52.210;5.158;2023-03-23T13:26:22;6.80;;;1.85;;
65328;SDS011;51941;52.210;5.158;2023-03-23T13:28:54;7.60;;;2.00;;
65328;SDS011;51941;52.210;5.158;2023-03-23T13:31:24;10.65;;;1.98;;
65328;SDS011;51941;52.210;5.158;2023-03-23T13:33:59;9.25;;;2.20;;
65328;SDS011;51941;52.210;5.158;2023-03-23T13:36:30;12.98;;;3.83;;
65328;SDS011;51941;52.210;5.158;2023-03-23T13:39:00;7.50;;;2.42;;
65328;SDS011;51941;52.210;5.158;2023-03-23T13:41:29;8.73;;;1.83;;
65328;SDS011;51941;52.210;5.158;2023-03-23T13:44:15;9.27;;;1.80;;
65328;SDS011;51941;52.210;5.158;2023-03-23T13:46:53;7.22;;;1.60;;
65328;SDS011;51941;52.210;5.158;2023-03-23T13:49:23;7.93;;;1.60;;
65328;SDS011;51941;52.210;5.158;2023-03-23T13:51:58;7.47;;;1.55;;
65328;SDS011;51941;52.210;5.158;2023-03-23T13:54:30;5.90;;;1.50;;
65328;SDS011;51941;52.210;5.158;2023-03-23T13:57:19;5.15;;;1.83;;
65328;SDS011;51941;52.210;5.158;2023-03-23T13:59:55;8.23;;;1.75;;
65328;SDS011;51941;52.210;5.158;2023-03-23T14:02:28;8.00;;;1.70;;
65328;SDS011;51941;52.210;5.158;2023-03-23T14:05:11;6.68;;;1.88;;
65328;SDS011;51941;52.210;5.158;2023-03-23T14:07:57;8.23;;;1.85;;
65328;SDS011;51941;52.210;5.158;2023-03-23T14:10:31;12.32;;;2.53;;
65328;SDS011;51941;52.210;5.158;2023-03-23T14:13:00;9.13;;;2.28;;
65328;SDS011;51941;52.210;5.158;2023-03-23T14:15:29;11.73;;;2.37;;
65328;SDS011;51941;52.210;5.158;2023-03-23T14:17:57;10.40;;;2.70;;
65328;SDS011;51941;52.210;5.158;2023-03-23T14:20:31;12.93;;;2.10;;
65328;SDS011;51941;52.210;5.158;2023-03-23T14:23:00;9.15;;;2.25;;
65328;SDS011;51941;52.210;5.158;2023-03-23T14:25:28;9.52;;;2.45;;
65328;SDS011;51941;52.210;5.158;2023-03-23T14:27:57;9.73;;;2.20;;
65328;SDS011;51941;52.210;5.158;2023-03-23T14:30:25;12.85;;;2.40;;
65328;SDS011;51941;52.210;5.158;2023-03-23T14:33:02;13.15;;;2.67;;
65328;SDS011;51941;52.210;5.158;2023-03-23T14:35:34;9.43;;;1.85;;
65328;SDS011;51941;52.210;5.158;2023-03-23T14:38:03;8.52;;;2.00;;
65328;SDS011;51941;52.210;5.158;2023-03-23T14:40:31;6.75;;;1.65;;
65328;SDS011;51941;52.210;5.158;2023-03-23T14:42:57;6.60;;;1.60;;
65328;SDS011;51941;52.210;5.158;2023-03-23T14:45:25;10.60;;;2.08;;
65328;SDS011;51941;52.210;5.158;2023-03-23T14:47:53;7.70;;;2.08;;
65328;SDS011;51941;52.210;5.158;2023-03-23T14:50:24;10.75;;;1.88;;
65328;SDS011;51941;52.210;5.158;2023-03-23T14:52:57;8.65;;;1.77;;
65328;SDS011;51941;52.210;5.158;2023-03-23T14:55:26;12.73;;;1.88;;
65328;SDS011;51941;52.210;5.158;2023-03-23T14:57:56;8.05;;;2.17;;
65328;SDS011;51941;52.210;5.158;2023-03-23T15:00:33;9.35;;;2.40;;
65328;SDS011;51941;52.210;5.158;2023-03-23T15:03:03;9.13;;;2.17;;
65328;SDS011;51941;52.210;5.158;2023-03-23T15:05:32;8.43;;;1.80;;
65328;SDS011;51941;52.210;5.158;2023-03-23T15:08:03;9.07;;;2.58;;
65328;SDS011;51941;52.210;5.158;2023-03-23T15:10:32;10.32;;;2.25;;
65328;SDS011;51941;52.210;5.158;2023-03-23T15:13:00;8.90;;;2.40;;
65328;SDS011;51941;52.210;5.158;2023-03-23T15:15:27;7.18;;;2.45;;
65328;SDS011;51941;52.210;5.158;2023-03-23T15:17:55;8.63;;;2.27;;
65328;SDS011;51941;52.210;5.158;2023-03-23T15:20:23;7.82;;;1.95;;
65328;SDS011;51941;52.210;5.158;2023-03-23T15:22:52;7.63;;;1.77;;
65328;SDS011;51941;52.210;5.158;2023-03-23T15:25:21;8.90;;;2.17;;
65328;SDS011;51941;52.210;5.158;2023-03-23T15:27:49;7.75;;;1.92;;
65328;SDS011;51941;52.210;5.158;2023-03-23T15:30:27;9.43;;;1.80;;
65328;SDS011;51941;52.210;5.158;2023-03-23T15:33:00;9.23;;;2.10;;